createdAt,value
2018-09-09T00:01:37.584Z,99900.74
2018-09-09T00:04:06.576Z,99901.70
2018-09-09T00:06:35.616Z,99902.66
2018-09-09T00:09:04.904Z,99901.41
2018-09-09T00:11:33.889Z,99901.34
2018-09-09T00:14:03.085Z,99900.40
2018-09-09T00:16:32.082Z,99902.22
2018-09-09T00:19:01.311Z,99909.64
2018-09-09T00:21:30.365Z,99918.05
2018-09-09T00:23:59.328Z,99919.53
2018-09-09T00:26:28.282Z,99913.70
2018-09-09T00:28:57.277Z,99912.75
2018-09-09T00:31:26.220Z,99916.38
2018-09-09T00:33:55.220Z,99921.08
2018-09-09T00:36:24.232Z,99922.29
2018-09-09T00:38:53.216Z,99922.52
2018-09-09T00:41:22.229Z,99915.94
2018-09-09T00:43:51.191Z,99921.98
2018-09-09T00:46:20.200Z,99925.77
2018-09-09T00:48:53.005Z,99918.84
2018-09-09T00:51:26.953Z,99920.96
2018-09-09T00:53:55.895Z,99916.91
2018-09-09T00:56:24.830Z,99919.73
2018-09-09T00:58:53.920Z,99923.89
2018-09-09T01:01:22.936Z,99920.88
2018-09-09T01:03:51.873Z,99917.81
2018-09-09T01:06:20.832Z,99910.31
2018-09-09T01:08:49.816Z,99914.72
2018-09-09T01:11:18.840Z,99905.77
2018-09-09T01:13:47.772Z,99910.31
2018-09-09T01:16:16.755Z,99905.61
2018-09-09T01:18:45.756Z,99904.79
2018-09-09T01:21:14.728Z,99906.55
2018-09-09T01:23:43.702Z,99904.13
2018-09-09T01:26:12.685Z,99909.41
2018-09-09T01:28:41.685Z,99915.55
2018-09-09T01:31:10.676Z,99910.77
2018-09-09T01:33:39.692Z,99917.74
2018-09-09T01:36:08.696Z,99910.55
2018-09-09T01:38:37.633Z,99905.32
2018-09-09T01:41:06.695Z,99915.16
2018-09-09T01:43:35.721Z,99919.23
2018-09-09T01:46:04.680Z,99921.91
2018-09-09T01:48:33.664Z,99923.02
2018-09-09T01:51:02.685Z,99925.59
2018-09-09T01:53:31.620Z,99922.66
2018-09-09T01:56:00.544Z,99922.88
2018-09-09T01:58:29.508Z,99927.39
2018-09-09T02:00:58.496Z,99924.84
2018-09-09T02:03:27.504Z,99929.04
2018-09-09T02:05:56.452Z,99929.64
2018-09-09T02:08:25.576Z,99934.90
2018-09-09T02:10:58.804Z,99939.14
2018-09-09T02:13:28.315Z,99938.83
2018-09-09T02:15:57.259Z,99946.68
2018-09-09T02:18:26.237Z,99941.55
2018-09-09T02:20:55.252Z,99941.83
2018-09-09T02:23:24.941Z,99945.23
2018-09-09T02:25:53.971Z,99944.70
2018-09-09T02:28:22.952Z,99945.02
2018-09-09T02:30:52.012Z,99940.04
2018-09-09T02:33:21.065Z,99944.02
2018-09-09T02:35:50.135Z,99953.79
2018-09-09T02:38:19.145Z,99949.92
2018-09-09T02:40:48.091Z,99948.88
2018-09-09T02:43:17.161Z,99953.85
2018-09-09T02:45:46.117Z,99958.45
2018-09-09T02:48:15.253Z,99961.70
2018-09-09T02:50:44.204Z,99970.63
2018-09-09T02:53:13.208Z,99972.64
2018-09-09T02:55:45.580Z,99969.98
2018-09-09T02:58:16.535Z,99980.34
2018-09-09T03:00:46.007Z,99979.66
2018-09-09T03:03:15.001Z,99983.86
2018-09-09T03:05:44.036Z,99990.80
2018-09-09T03:08:13.025Z,99991.95
2018-09-09T03:10:41.972Z,99987.56
2018-09-09T03:13:10.927Z,99981.19
2018-09-09T03:15:39.855Z,99983.22
2018-09-09T03:18:08.806Z,99984.64
2018-09-09T03:20:37.820Z,99987.82
2018-09-09T03:23:06.828Z,99989.08
2018-09-09T03:25:35.840Z,99979.47
2018-09-09T03:28:04.792Z,99979.47
2018-09-09T03:30:33.732Z,99986.16
2018-09-09T03:33:02.744Z,99994.25
2018-09-09T03:35:31.723Z,99993.10
2018-09-09T03:38:00.768Z,99992.27
2018-09-09T03:40:29.787Z,99963.53
2018-09-09T03:42:58.944Z,99993.73
2018-09-09T03:45:27.888Z,99998.58
2018-09-09T03:47:57.045Z,99998.38
2018-09-09T03:50:26.046Z,100011.95
2018-09-09T03:52:55.117Z,100007.88
2018-09-09T03:55:24.136Z,100004.44
2018-09-09T03:57:53.233Z,100003.81
2018-09-09T04:00:22.187Z,100013.00
2018-09-09T04:02:51.177Z,100012.58
2018-09-09T04:05:20.180Z,100010.59
2018-09-09T04:07:49.123Z,100012.16
2018-09-09T04:10:18.276Z,100016.09
2018-09-09T04:12:47.211Z,100018.77
2018-09-09T04:15:16.347Z,100013.02
2018-09-09T04:17:45.364Z,100011.70
2018-09-09T04:20:14.308Z,100010.40
2018-09-09T04:22:43.384Z,100010.02
2018-09-09T04:25:12.390Z,100012.00
2018-09-09T04:27:41.481Z,100014.05
2018-09-09T04:30:10.504Z,100014.39
2018-09-09T04:32:39.626Z,100021.16
2018-09-09T04:35:08.700Z,100017.59
2018-09-09T04:37:37.639Z,100018.83
2018-09-09T04:40:06.732Z,99978.87
2018-09-09T04:42:35.757Z,100018.33
2018-09-09T04:45:04.740Z,100016.52
2018-09-09T04:47:33.696Z,100013.88
2018-09-09T04:50:02.723Z,100016.52
2018-09-09T04:52:31.773Z,100014.70
2018-09-09T04:55:00.774Z,100012.79
2018-09-09T04:57:29.744Z,100014.52
2018-09-09T04:59:58.690Z,100018.17
2018-09-09T05:02:27.864Z,100022.41
2018-09-09T05:04:56.875Z,100019.47
2018-09-09T05:07:25.970Z,100023.77
2018-09-09T05:09:55.045Z,100025.11
2018-09-09T05:12:24.075Z,100031.59
2018-09-09T05:14:53.117Z,100031.24
2018-09-09T05:17:22.091Z,100037.26
2018-09-09T05:19:51.112Z,100031.76
2018-09-09T05:22:20.132Z,100027.67
2018-09-09T05:24:49.224Z,100038.55
2018-09-09T05:27:18.183Z,100034.56
2018-09-09T05:29:47.256Z,100036.67
2018-09-09T05:32:16.289Z,100039.98
2018-09-09T05:34:45.224Z,100041.11
2018-09-09T05:37:14.220Z,100035.20
2018-09-09T05:39:43.263Z,100041.52
2018-09-09T05:42:12.460Z,100041.51
2018-09-09T05:44:41.555Z,100041.48
2018-09-09T05:47:10.601Z,100046.73
2018-09-09T05:49:39.685Z,100047.55
2018-09-09T05:52:08.709Z,100047.69
2018-09-09T05:54:37.835Z,100053.09
2018-09-09T05:57:06.919Z,100057.70
2018-09-09T05:59:35.947Z,100055.23
2018-09-09T06:02:04.920Z,100053.63
2018-09-09T06:04:33.873Z,100052.38
2018-09-09T06:07:02.892Z,100054.84
2018-09-09T06:09:31.908Z,100062.77
2018-09-09T06:12:00.976Z,100058.73
2018-09-09T06:14:29.971Z,100061.00
2018-09-09T06:16:58.973Z,100058.80
2018-09-09T06:19:27.955Z,100062.16
2018-09-09T06:21:56.908Z,100066.55
2018-09-09T06:24:25.909Z,100068.13
2018-09-09T06:26:54.936Z,100071.16
2018-09-09T06:29:23.920Z,100065.78
2018-09-09T06:31:53.004Z,100065.98
2018-09-09T06:34:22.052Z,100069.18
2018-09-09T06:36:51.089Z,100081.03
2018-09-09T06:39:20.112Z,100075.56
2018-09-09T06:41:49.151Z,100076.59
2018-09-09T06:44:18.168Z,100079.94
2018-09-09T06:46:47.179Z,100090.02
2018-09-09T06:49:16.277Z,100094.08
2018-09-09T06:51:45.251Z,100086.98
2018-09-09T06:54:14.228Z,100093.97
2018-09-09T06:56:43.236Z,100092.72
2018-09-09T06:59:12.281Z,100092.77
2018-09-09T07:01:41.287Z,100101.87
2018-09-09T07:04:10.216Z,100095.45
2018-09-09T07:06:39.232Z,100097.22
2018-09-09T07:09:09.516Z,100095.00
2018-09-09T07:11:38.790Z,100091.67
2018-09-09T07:14:07.655Z,100094.95
2018-09-09T07:16:36.738Z,100093.60
2018-09-09T07:19:05.819Z,100088.12
2018-09-09T07:21:34.759Z,100091.23
2018-09-09T07:24:04.035Z,100093.03
2018-09-09T07:26:33.118Z,100087.25
2018-09-09T07:29:02.201Z,100087.82
2018-09-09T07:31:31.196Z,100080.67
2018-09-09T07:34:00.405Z,100078.73
2018-09-09T07:36:29.368Z,100074.59
2018-09-09T07:38:58.356Z,100073.80
2018-09-09T07:41:27.446Z,100069.38
2018-09-09T07:43:56.469Z,100072.41
2018-09-09T07:46:25.584Z,100069.09
2018-09-09T07:48:54.641Z,100068.25
2018-09-09T07:51:23.787Z,100071.58
2018-09-09T07:53:52.838Z,100069.09
2018-09-09T07:56:21.917Z,100070.78
2018-09-09T07:58:51.013Z,100068.55
2018-09-09T08:01:19.976Z,100064.72
2018-09-09T08:03:49.242Z,100066.88
2018-09-09T08:06:18.253Z,100065.52
2018-09-09T08:08:47.289Z,100063.83
2018-09-09T08:11:16.313Z,100059.95
2018-09-09T08:13:45.317Z,100054.73
2018-09-09T08:16:14.321Z,100058.34
2018-09-09T08:18:43.342Z,100059.64
2018-09-09T08:21:12.364Z,100059.06
2018-09-09T08:23:41.338Z,100052.03
2018-09-09T08:26:11.376Z,100050.87
2018-09-09T08:28:40.328Z,100058.56
2018-09-09T08:31:09.313Z,100051.94
2018-09-09T08:33:38.320Z,100058.21
2018-09-09T08:36:07.332Z,100054.55
2018-09-09T08:38:36.357Z,100056.82
2018-09-09T08:41:05.744Z,100050.25
2018-09-09T08:43:34.880Z,100055.64
2018-09-09T08:46:03.816Z,100053.04
2018-09-09T08:48:33.132Z,100048.80
2018-09-09T08:51:02.164Z,100051.00
2018-09-09T08:53:31.237Z,100049.91
2018-09-09T08:56:00.212Z,100043.26
2018-09-09T08:58:29.360Z,100041.83
2018-09-09T09:00:58.421Z,100045.73
2018-09-09T09:03:27.494Z,100035.79
2018-09-09T09:05:56.961Z,100032.09
2018-09-09T09:08:25.992Z,100030.81
2018-09-09T09:10:55.036Z,100026.91
2018-09-09T09:13:24.053Z,100024.02
2018-09-09T09:15:52.989Z,100023.47
2018-09-09T09:18:21.991Z,100020.59
2018-09-09T09:20:51.009Z,100015.20
2018-09-09T09:23:20.063Z,100013.87
2018-09-09T09:25:53.768Z,100007.09
2018-09-09T09:28:23.783Z,100004.61
2018-09-09T09:30:53.556Z,100001.39
2018-09-09T09:33:22.839Z,100005.67
2018-09-09T09:35:53.145Z,99995.61
2018-09-09T09:38:23.631Z,99974.36
2018-09-09T09:40:53.115Z,99995.58
2018-09-09T09:43:22.115Z,99979.81
2018-09-09T09:45:51.253Z,99985.66
2018-09-09T09:48:20.245Z,99973.48
2018-09-09T09:50:49.193Z,99974.52
2018-09-09T09:53:18.303Z,99976.37
2018-09-09T09:55:47.325Z,99974.09
2018-09-09T09:58:16.266Z,99968.20
2018-09-09T10:00:50.399Z,99970.94
2018-09-09T10:03:19.360Z,99969.34
2018-09-09T10:05:48.450Z,99964.62
2018-09-09T10:08:17.388Z,99957.97
2018-09-09T10:10:46.356Z,99959.73
2018-09-09T10:13:15.360Z,99963.27
2018-09-09T10:15:44.404Z,99953.28
2018-09-09T10:18:13.388Z,99960.08
2018-09-09T10:20:42.447Z,99957.36
2018-09-09T10:23:11.525Z,99949.72
2018-09-09T10:25:40.547Z,99947.98
2018-09-09T10:28:09.522Z,99952.49
2018-09-09T10:30:38.472Z,99937.41
2018-09-09T10:33:07.544Z,99943.31
2018-09-09T10:35:36.545Z,99937.43
2018-09-09T10:38:05.539Z,99937.25
2018-09-09T10:40:34.508Z,99937.52
2018-09-09T10:43:03.517Z,99936.48
2018-09-09T10:45:32.560Z,99933.65
2018-09-09T10:48:01.508Z,99927.30
2018-09-09T10:50:30.574Z,99934.63
2018-09-09T10:52:59.601Z,99925.87
2018-09-09T10:55:28.639Z,99926.21
2018-09-09T10:57:57.601Z,99918.98
2018-09-09T11:00:26.529Z,99913.08
2018-09-09T11:02:55.615Z,99918.77
2018-09-09T11:05:24.621Z,99906.52
2018-09-09T11:07:53.696Z,99907.05
2018-09-09T11:10:22.637Z,99914.45
2018-09-09T11:12:51.645Z,99908.79
2018-09-09T11:15:20.707Z,99903.97
2018-09-09T11:17:49.652Z,99910.56
2018-09-09T11:20:18.731Z,99901.84
2018-09-09T11:22:47.737Z,99904.09
2018-09-09T11:25:16.769Z,99899.08
2018-09-09T11:27:45.839Z,99894.20
2018-09-09T11:30:14.826Z,99887.78
2018-09-09T11:32:43.867Z,99891.72
2018-09-09T11:35:12.962Z,99886.47
2018-09-09T11:37:41.975Z,99878.30
2018-09-09T11:40:10.992Z,99874.70
2018-09-09T11:42:40.020Z,99884.94
2018-09-09T11:45:09.196Z,99879.05
2018-09-09T11:47:38.155Z,99877.45
2018-09-09T11:50:07.257Z,99866.96
2018-09-09T11:52:36.250Z,99870.98
2018-09-09T11:55:05.275Z,99872.59
2018-09-09T11:57:34.256Z,99866.59
2018-09-09T12:00:03.307Z,99864.72
2018-09-09T12:02:32.329Z,99856.54
2018-09-09T12:05:01.333Z,99862.16
2018-09-09T12:07:30.489Z,99853.81
2018-09-09T12:09:59.522Z,99848.71
2018-09-09T12:12:28.853Z,99839.97
2018-09-09T12:14:58.884Z,99838.99
2018-09-09T12:17:27.877Z,99829.72
2018-09-09T12:19:56.827Z,99841.22
2018-09-09T12:22:25.850Z,99834.00
2018-09-09T12:24:54.936Z,99828.96
2018-09-09T12:27:23.995Z,99833.61
2018-09-09T12:29:52.944Z,99833.17
2018-09-09T12:32:21.976Z,99824.57
2018-09-09T12:34:50.918Z,99826.08
2018-09-09T12:37:19.884Z,99817.64
2018-09-09T12:39:48.847Z,99816.66
2018-09-09T12:42:17.868Z,99813.69
2018-09-09T12:44:51.887Z,99813.81
2018-09-09T12:47:26.179Z,99809.38
2018-09-09T12:49:55.217Z,99812.30
2018-09-09T12:52:24.177Z,99803.22
2018-09-09T12:54:53.144Z,99799.30
2018-09-09T12:57:22.148Z,99800.34
2018-09-09T12:59:51.277Z,99793.03
2018-09-09T13:02:20.480Z,99796.34
2018-09-09T13:04:49.500Z,99794.63
2018-09-09T13:07:19.950Z,99798.22
2018-09-09T13:09:48.948Z,99793.03
2018-09-09T13:12:17.924Z,99797.47
2018-09-09T13:14:47.217Z,99797.45
2018-09-09T13:17:16.263Z,99791.91
2018-09-09T13:19:45.294Z,99791.19
2018-09-09T13:22:14.348Z,99792.89
2018-09-09T13:24:43.316Z,99793.53
2018-09-09T13:27:12.320Z,99792.77
2018-09-09T13:29:41.378Z,99790.60
2018-09-09T13:32:10.316Z,99787.27
2018-09-09T13:34:39.332Z,99792.41
2018-09-09T13:37:08.384Z,99794.89
2018-09-09T13:39:37.440Z,99796.57
2018-09-09T13:42:06.529Z,99796.72
2018-09-09T13:44:35.546Z,99798.22
2018-09-09T13:47:04.508Z,99792.11
2018-09-09T13:49:33.500Z,99790.19
2018-09-09T13:52:02.469Z,99783.69
2018-09-09T13:54:31.600Z,99787.58
2018-09-09T13:57:00.612Z,99783.50
2018-09-09T13:59:29.965Z,99782.28
2018-09-09T14:01:59.046Z,99788.16
2018-09-09T14:04:28.018Z,99783.31
2018-09-09T14:06:57.130Z,99784.16
2018-09-09T14:09:26.211Z,99783.90
2018-09-09T14:11:55.238Z,99788.84
2018-09-09T14:14:24.243Z,99780.98
2018-09-09T14:16:53.241Z,99783.68
2018-09-09T14:19:22.194Z,99781.38
2018-09-09T14:21:51.174Z,99781.39
2018-09-09T14:24:20.136Z,99783.53
2018-09-09T14:26:49.080Z,99781.97
2018-09-09T14:29:18.040Z,99776.36
2018-09-09T14:31:47.061Z,99770.61
2018-09-09T14:34:16.010Z,99778.34
2018-09-09T14:36:45.008Z,99778.52
2018-09-09T14:39:14.025Z,99768.41
2018-09-09T14:41:43.146Z,99777.23
2018-09-09T14:44:12.346Z,99779.01
2018-09-09T14:46:41.380Z,99777.75
2018-09-09T14:49:10.388Z,99780.63
2018-09-09T14:51:39.500Z,99776.91
2018-09-09T14:54:08.486Z,99776.70
2018-09-09T14:56:37.533Z,99779.00
2018-09-09T14:59:08.528Z,99785.16
2018-09-09T15:01:37.540Z,99795.09
2018-09-09T15:04:06.525Z,99784.62
2018-09-09T15:06:35.471Z,99785.42
2018-09-09T15:09:05.624Z,99783.75
2018-09-09T15:11:34.620Z,99791.80
2018-09-09T15:14:03.601Z,99787.92
2018-09-09T15:16:32.621Z,99789.77
2018-09-09T15:19:01.697Z,99788.33
2018-09-09T15:21:30.656Z,99789.71
2018-09-09T15:23:59.703Z,99791.98
2018-09-09T15:26:28.925Z,99794.94
2018-09-09T15:28:57.977Z,99791.00
2018-09-09T15:31:26.896Z,99795.21
2018-09-09T15:33:55.948Z,99791.95
2018-09-09T15:36:25.028Z,99794.50
2018-09-09T15:38:54.014Z,99795.39
2018-09-09T15:41:24.164Z,99791.30
2018-09-09T15:43:53.137Z,99795.22
2018-09-09T15:46:22.176Z,99800.80
2018-09-09T15:48:51.161Z,99800.28
2018-09-09T15:51:20.092Z,99757.94
2018-09-09T15:53:49.042Z,99795.34
2018-09-09T15:56:18.076Z,99791.25
2018-09-09T15:58:47.080Z,99791.80
2018-09-09T16:01:16.072Z,99799.83
2018-09-09T16:03:45.096Z,99797.95
2018-09-09T16:06:14.164Z,99798.26
2018-09-09T16:08:43.120Z,99798.56
2018-09-09T16:11:12.182Z,99799.09
2018-09-09T16:13:41.173Z,99807.64
2018-09-09T16:16:10.137Z,99800.77
2018-09-09T16:18:39.234Z,99803.80
2018-09-09T16:21:08.328Z,99801.59
2018-09-09T16:23:37.390Z,99798.03
2018-09-09T16:26:06.464Z,99797.47
2018-09-09T16:28:35.541Z,99801.61
2018-09-09T16:31:04.580Z,99803.81
2018-09-09T16:33:33.586Z,99801.61
2018-09-09T16:36:02.593Z,99802.97
2018-09-09T16:38:31.596Z,99805.46
2018-09-09T16:41:00.589Z,99813.14
2018-09-09T16:43:29.600Z,99812.59
2018-09-09T16:45:58.556Z,99807.39
2018-09-09T16:48:27.562Z,99816.72
2018-09-09T16:50:56.569Z,99818.05
2018-09-09T16:53:25.572Z,99814.20
2018-09-09T16:55:54.689Z,99818.59
2018-09-09T16:58:23.701Z,99826.53
2018-09-09T17:00:52.872Z,99819.36
2018-09-09T17:03:26.156Z,99823.75
2018-09-09T17:05:55.205Z,99830.06
2018-09-09T17:08:25.681Z,99824.00
2018-09-09T17:10:54.869Z,99828.94
2018-09-09T17:13:23.804Z,99834.70
2018-09-09T17:15:53.005Z,99826.70
2018-09-09T17:18:21.969Z,99828.33
2018-09-09T17:20:51.053Z,99826.70
2018-09-09T17:23:20.489Z,99833.34
2018-09-09T17:25:49.738Z,99828.95
2018-09-09T17:28:19.046Z,99828.98
2018-09-09T17:30:48.335Z,99836.13
2018-09-09T17:33:17.645Z,99835.58
2018-09-09T17:35:46.914Z,99837.27
2018-09-09T17:38:16.225Z,99838.38
2018-09-09T17:40:45.491Z,99837.53
2018-09-09T17:43:14.743Z,99845.53
2018-09-09T17:45:44.023Z,99846.08
2018-09-09T17:48:13.303Z,99843.34
2018-09-09T17:50:42.615Z,99852.12
2018-09-09T17:53:11.895Z,99859.00
2018-09-09T17:55:41.202Z,99856.52
2018-09-09T17:58:10.483Z,99868.62
2018-09-09T18:00:39.777Z,99887.31
2018-09-09T18:03:09.064Z,99898.27
2018-09-09T18:05:38.470Z,99902.37
2018-09-09T18:08:07.855Z,99902.29
2018-09-09T18:10:37.183Z,99906.59
2018-09-09T18:13:06.521Z,99905.11
2018-09-09T18:15:35.871Z,99916.01
2018-09-09T18:18:05.187Z,99914.66
2018-09-09T18:20:34.475Z,99922.91
2018-09-09T18:23:03.824Z,99926.16
2018-09-09T18:25:33.222Z,99927.36
2018-09-09T18:28:02.564Z,99935.09
2018-09-09T18:30:31.858Z,99937.08
2018-09-09T18:33:01.142Z,99940.47
2018-09-09T18:35:31.241Z,99942.72
2018-09-09T18:38:00.735Z,99935.92
2018-09-09T18:40:30.022Z,99941.13
2018-09-09T18:42:59.320Z,99941.42
2018-09-09T18:45:29.613Z,99940.85
2018-09-09T18:47:58.921Z,99951.02
2018-09-09T18:50:28.202Z,99952.11
2018-09-09T18:52:59.512Z,99946.56
2018-09-09T18:55:31.542Z,99952.00
2018-09-09T18:58:01.098Z,99956.69
2018-09-09T19:00:30.972Z,99960.80
2018-09-09T19:03:00.277Z,99966.22
2018-09-09T19:05:29.585Z,99968.63
2018-09-09T19:07:58.913Z,99962.02
2018-09-09T19:10:28.237Z,99963.24
2018-09-09T19:12:58.615Z,99972.55
2018-09-09T19:15:28.046Z,99976.38
2018-09-09T19:17:57.366Z,99978.47
2018-09-09T19:20:27.568Z,99983.59
2018-09-09T19:25:24.992Z,100003.70
2018-09-09T19:27:54.289Z,100009.05
2018-09-09T19:30:23.575Z,100026.60
2018-09-09T19:32:52.883Z,100010.63
2018-09-09T19:35:22.206Z,100016.37
2018-09-09T19:37:51.625Z,100024.13
2018-09-09T19:40:20.913Z,100020.92
2018-09-09T19:42:50.183Z,100021.44
2018-09-09T19:45:19.483Z,100022.47
2018-09-09T19:47:48.776Z,100019.06
2018-09-09T19:50:18.060Z,100009.84
2018-09-09T19:52:47.359Z,100010.98
2018-09-09T19:55:16.807Z,100017.21
2018-09-09T19:57:46.112Z,100023.46
2018-09-09T20:00:15.397Z,100021.50
2018-09-09T20:02:44.683Z,100023.38
2018-09-09T20:05:13.973Z,100033.44
2018-09-09T20:07:43.247Z,100039.66
2018-09-09T20:10:12.487Z,100037.59
2018-09-09T20:12:41.892Z,100044.67
2018-09-09T20:15:11.232Z,100040.56
2018-09-09T20:17:40.507Z,100048.00
2018-09-09T20:20:09.797Z,100045.02
2018-09-09T20:22:39.054Z,100042.28
2018-09-09T20:25:08.144Z,100035.98
2018-09-09T20:27:37.084Z,100038.13
2018-09-09T20:30:06.075Z,100041.31
2018-09-09T20:32:35.093Z,100051.72
2018-09-09T20:35:04.098Z,100051.13
2018-09-09T20:37:33.024Z,100044.77
2018-09-09T20:40:01.987Z,100046.05
2018-09-09T20:42:30.954Z,100051.13
2018-09-09T20:44:59.878Z,100058.70
2018-09-09T20:47:28.832Z,100065.25
2018-09-09T20:49:57.757Z,100074.81
2018-09-09T20:52:26.768Z,100074.34
2018-09-09T20:54:55.687Z,100082.67
2018-09-09T20:57:24.695Z,100087.13
2018-09-09T20:59:53.615Z,100085.02
2018-09-09T21:02:22.551Z,100084.07
2018-09-09T21:04:51.512Z,100092.84
2018-09-09T21:07:20.444Z,100087.28
2018-09-09T21:09:49.399Z,100093.23
2018-09-09T21:12:18.339Z,100090.85
2018-09-09T21:14:47.272Z,100096.08
2018-09-09T21:17:16.205Z,100106.05
2018-09-09T21:19:45.290Z,100123.67
2018-09-09T21:22:14.226Z,100120.41
2018-09-09T21:24:43.171Z,100117.67
2018-09-09T21:27:12.138Z,100116.98
2018-09-09T21:29:41.076Z,100116.09
2018-09-09T21:32:10.016Z,100104.42
2018-09-09T21:34:38.969Z,100110.51
2018-09-09T21:37:07.964Z,100111.35
2018-09-09T21:39:36.876Z,100114.19
2018-09-09T21:42:05.850Z,100119.72
2018-09-09T21:44:34.781Z,100118.02
2018-09-09T21:47:03.690Z,100125.69
2018-09-09T21:49:32.674Z,100132.52
2018-09-09T21:52:01.599Z,100134.19
2018-09-09T21:54:30.795Z,100145.16
2018-09-09T21:56:59.723Z,100157.12
2018-09-09T21:59:28.680Z,100169.65
2018-09-09T22:02:03.523Z,100164.48
2018-09-09T22:04:32.594Z,100166.02
2018-09-09T22:07:01.722Z,100155.38
2018-09-09T22:09:30.707Z,100156.88
2018-09-09T22:11:59.671Z,100161.50
2018-09-09T22:14:28.610Z,100157.80
2018-09-09T22:16:57.570Z,100159.81
2018-09-09T22:19:26.479Z,100155.30
2018-09-09T22:21:55.456Z,100163.14
2018-09-09T22:24:24.383Z,100165.22
2018-09-09T22:26:53.407Z,100168.22
2018-09-09T22:29:22.335Z,100167.84
2018-09-09T22:31:51.321Z,100160.89
2018-09-09T22:34:20.318Z,100161.80
2018-09-09T22:36:49.266Z,100161.53
2018-09-09T22:39:18.215Z,100168.96
2018-09-09T22:41:47.144Z,100166.64
2018-09-09T22:44:16.155Z,100166.56
2018-09-09T22:46:45.076Z,100168.25
2018-09-09T22:49:14.192Z,100168.12
2018-09-09T22:51:43.139Z,100166.52
2018-09-09T22:54:12.159Z,100159.94
2018-09-09T22:56:41.108Z,100159.28
2018-09-09T22:59:10.062Z,100164.02
2018-09-09T23:01:39.018Z,100164.50
2018-09-09T23:04:07.962Z,100168.42
2018-09-09T23:06:36.904Z,100171.00
2018-09-09T23:09:08.527Z,100169.78
2018-09-09T23:11:37.523Z,100159.92
2018-09-09T23:14:06.447Z,100158.34
2018-09-09T23:16:35.404Z,100161.68
2018-09-09T23:19:04.311Z,100164.62
2018-09-09T23:21:33.232Z,100162.41
2018-09-09T23:24:02.174Z,100162.01
2018-09-09T23:26:31.098Z,100164.52
2018-09-09T23:29:00.049Z,100162.94
2018-09-09T23:31:28.985Z,100158.84
2018-09-09T23:33:57.920Z,100159.90
2018-09-09T23:36:26.852Z,100162.63
2018-09-09T23:38:55.835Z,100162.94
2018-09-09T23:41:24.743Z,100161.88
2018-09-09T23:43:53.659Z,100166.89
2018-09-09T23:46:22.616Z,100161.50
2018-09-09T23:48:51.570Z,100164.31
2018-09-09T23:51:20.504Z,100159.69
2018-09-09T23:53:49.423Z,100155.08
2018-09-09T23:56:18.451Z,100158.11
2018-09-09T23:58:47.367Z,100155.70
